Time;durP1;ratioP1;P1;durP2;ratioP2;P2;SDS_P1;SDS_P2;PMS_P1;PMS_P2;Temp;Humidity;BMP_temperature;BMP_pressure;BME280_temperature;BME280_humidity;BME280_pressure;Samples;Min_cycle;Max_cycle;Signal;HPM_P1;HPM_P2
2022/07/05 00:00:51;;;;;;;3.20;3.00;;;;;;;;;;5027377;28;20241;-66
2022/07/05 00:03:18;;;;;;;3.87;3.57;;;;;;;;;;5019875;28;20223;-66
2022/07/05 00:05:46;;;;;;;3.33;3.13;;;;;;;;;;5017000;28;20218;-65
2022/07/05 00:08:13;;;;;;;3.88;3.67;;;;;;;;;;5023257;28;20218;-66
2022/07/05 00:10:40;;;;;;;3.58;3.33;;;;;;;;;;5024602;28;20207;-66
2022/07/05 00:13:08;;;;;;;3.42;3.15;;;;;;;;;;5023380;28;20211;-65
2022/07/05 00:15:36;;;;;;;3.40;3.10;;;;;;;;;;5026531;28;20222;-65
2022/07/05 00:18:03;;;;;;;3.08;2.88;;;;;;;;;;5021021;28;20222;-64
2022/07/05 00:20:30;;;;;;;3.13;2.92;;;;;;;;;;5018034;28;20234;-65
2022/07/05 00:22:58;;;;;;;3.28;2.97;;;;;;;;;;5022128;28;20234;-65
2022/07/05 00:25:25;;;;;;;2.70;2.50;;;;;;;;;;5020890;28;20288;-63
2022/07/05 00:27:56;;;;;;;2.22;2.13;;;;;;;;;;5027781;28;20260;-65
2022/07/05 00:30:23;;;;;;;2.42;2.30;;;;;;;;;;5023999;28;20922;-66
2022/07/05 00:32:50;;;;;;;3.05;2.85;;;;;;;;;;5018025;28;20882;-65
2022/07/05 00:35:18;;;;;;;10.85;3.30;;;;;;;;;;5020929;28;20230;-65
2022/07/05 00:37:45;;;;;;;3.03;2.50;;;;;;;;;;5021279;28;20246;-65
2022/07/05 00:40:12;;;;;;;2.38;2.28;;;;;;;;;;5023586;28;20204;-64
2022/07/05 00:42:40;;;;;;;2.40;2.30;;;;;;;;;;5019806;28;20227;-65
2022/07/05 00:45:08;;;;;;;2.47;2.28;;;;;;;;;;5023939;28;20700;-65
2022/07/05 00:47:35;;;;;;;2.83;2.17;;;;;;;;;;5024175;28;20211;-65
2022/07/05 00:50:03;;;;;;;3.22;2.28;;;;;;;;;;5023349;28;20253;-66
2022/07/05 00:52:31;;;;;;;2.40;2.30;;;;;;;;;;5024406;28;20213;-65
2022/07/05 00:54:59;;;;;;;2.38;2.25;;;;;;;;;;5024157;28;20222;-65
2022/07/05 00:57:26;;;;;;;2.67;2.47;;;;;;;;;;5025607;28;20210;-65
2022/07/05 00:59:53;;;;;;;2.60;2.47;;;;;;;;;;5020474;28;20225;-65
2022/07/05 01:02:23;;;;;;;4.18;2.75;;;;;;;;;;5019162;28;20231;-64
2022/07/05 01:04:51;;;;;;;3.85;2.53;;;;;;;;;;5021475;28;20250;-66
2022/07/05 01:07:19;;;;;;;2.28;2.17;;;;;;;;;;5026657;28;20555;-66
2022/07/05 01:09:46;;;;;;;2.55;2.35;;;;;;;;;;5018608;28;20218;-66
2022/07/05 01:12:14;;;;;;;2.88;2.40;;;;;;;;;;5022842;28;20833;-64
2022/07/05 01:14:42;;;;;;;2.70;2.50;;;;;;;;;;5024274;28;20226;-65
2022/07/05 01:17:10;;;;;;;2.70;2.53;;;;;;;;;;5024771;28;20206;-65
2022/07/05 01:19:38;;;;;;;2.80;2.25;;;;;;;;;;5035599;28;20307;-65
2022/07/05 01:22:12;;;;;;;2.87;2.67;;;;;;;;;;5021261;28;20227;-64
2022/07/05 01:24:40;;;;;;;2.70;2.50;;;;;;;;;;5021838;28;20225;-65
2022/07/05 01:27:08;;;;;;;2.70;2.53;;;;;;;;;;5024055;28;20203;-65
2022/07/05 01:29:35;;;;;;;2.75;2.55;;;;;;;;;;5022734;28;20241;-65
2022/07/05 01:32:03;;;;;;;2.60;2.40;;;;;;;;;;5019844;28;20269;-66
2022/07/05 01:34:30;;;;;;;2.60;2.40;;;;;;;;;;5019349;28;20230;-65
2022/07/05 01:36:58;;;;;;;3.53;2.40;;;;;;;;;;5027915;28;20637;-66
2022/07/05 01:39:25;;;;;;;2.80;2.60;;;;;;;;;;5026546;28;20207;-66
2022/07/05 01:41:53;;;;;;;2.80;2.60;;;;;;;;;;5028819;28;20226;-63
2022/07/05 01:44:20;;;;;;;3.15;2.95;;;;;;;;;;5025829;28;20231;-63
2022/07/05 01:46:51;;;;;;;3.13;2.83;;;;;;;;;;5024558;28;20737;-65
2022/07/05 01:49:19;;;;;;;3.20;2.90;;;;;;;;;;5024011;28;20258;-63
2022/07/05 01:51:55;;;;;;;3.08;2.88;;;;;;;;;;5021369;28;20623;-64
2022/07/05 01:54:23;;;;;;;5.33;3.37;;;;;;;;;;5019458;28;20210;-65
2022/07/05 01:56:50;;;;;;;3.53;3.22;;;;;;;;;;5024464;28;20685;-65
2022/07/05 01:59:17;;;;;;;3.22;3.00;;;;;;;;;;5023211;28;20211;-64
2022/07/05 02:01:45;;;;;;;4.70;3.05;;;;;;;;;;5027753;28;20624;-65
2022/07/05 02:04:12;;;;;;;3.80;3.50;;;;;;;;;;5023491;28;20297;-65
2022/07/05 02:06:40;;;;;;;4.40;3.73;;;;;;;;;;5029905;28;20199;-65
2022/07/05 02:09:08;;;;;;;6.82;3.50;;;;;;;;;;5019312;28;20254;-65
2022/07/05 02:11:35;;;;;;;3.47;3.28;;;;;;;;;;5025121;28;20195;-65
2022/07/05 02:14:03;;;;;;;4.40;3.37;;;;;;;;;;5025323;28;20297;-65
2022/07/05 02:16:31;;;;;;;3.67;3.33;;;;;;;;;;5028517;28;20246;-64
2022/07/05 02:18:58;;;;;;;3.30;3.00;;;;;;;;;;5021901;28;20676;-63
2022/07/05 02:21:25;;;;;;;5.15;3.15;;;;;;;;;;5022721;28;20203;-65
2022/07/05 02:23:54;;;;;;;5.40;3.20;;;;;;;;;;5023786;28;20226;-65
2022/07/05 02:26:21;;;;;;;3.75;3.22;;;;;;;;;;5025579;28;20227;-64
2022/07/05 02:28:49;;;;;;;3.75;3.55;;;;;;;;;;5025828;28;20203;-64
2022/07/05 02:31:16;;;;;;;4.03;3.70;;;;;;;;;;5021688;28;20222;-65
2022/07/05 02:33:44;;;;;;;5.93;4.10;;;;;;;;;;5022205;28;20631;-65
2022/07/05 02:36:12;;;;;;;4.80;4.10;;;;;;;;;;5024581;28;20230;-65
2022/07/05 02:38:40;;;;;;;3.93;3.63;;;;;;;;;;5033137;28;20217;-65
2022/07/05 02:41:08;;;;;;;4.00;3.70;;;;;;;;;;5031108;28;20210;-65
2022/07/05 02:43:35;;;;;;;4.20;3.60;;;;;;;;;;5026812;28;20572;-64
2022/07/05 02:46:03;;;;;;;3.70;3.50;;;;;;;;;;5022672;28;20230;-65
2022/07/05 02:48:31;;;;;;;4.17;3.60;;;;;;;;;;5024231;28;20214;-65
2022/07/05 02:50:59;;;;;;;5.60;4.17;;;;;;;;;;5024593;28;20222;-64
2022/07/05 02:53:26;;;;;;;3.70;3.40;;;;;;;;;;5022065;28;20818;-65
2022/07/05 02:55:54;;;;;;;4.07;3.10;;;;;;;;;;5024494;28;20739;-65
2022/07/05 02:58:21;;;;;;;3.53;3.33;;;;;;;;;;5020713;28;20626;-64
2022/07/05 03:00:49;;;;;;;3.80;3.50;;;;;;;;;;5024600;28;20607;-66
2022/07/05 03:03:17;;;;;;;3.17;2.90;;;;;;;;;;5028094;28;20575;-65
2022/07/05 03:05:45;;;;;;;2.93;2.73;;;;;;;;;;5025722;28;20730;-65
2022/07/05 03:08:12;;;;;;;3.57;3.37;;;;;;;;;;5027401;28;20265;-64
2022/07/05 03:10:39;;;;;;;4.03;3.60;;;;;;;;;;5024151;28;20203;-65
2022/07/05 03:13:07;;;;;;;4.97;3.70;;;;;;;;;;5024684;28;20214;-65
2022/07/05 03:15:34;;;;;;;4.07;3.67;;;;;;;;;;5019872;28;20269;-65
2022/07/05 03:18:01;;;;;;;4.10;3.80;;;;;;;;;;5020405;28;20605;-65
2022/07/05 03:20:29;;;;;;;5.10;4.70;;;;;;;;;;5029747;28;20210;-65
2022/07/05 03:22:56;;;;;;;5.20;4.80;;;;;;;;;;5024253;28;20699;-64
2022/07/05 03:25:24;;;;;;;4.90;4.40;;;;;;;;;;5027127;28;20237;-65
2022/07/05 03:27:51;;;;;;;5.93;4.57;;;;;;;;;;5023960;28;20256;-64
2022/07/05 03:30:18;;;;;;;4.40;4.10;;;;;;;;;;5020451;28;20273;-65
2022/07/05 03:32:46;;;;;;;4.00;3.70;;;;;;;;;;5029949;28;20203;-65
2022/07/05 03:35:13;;;;;;;5.10;3.87;;;;;;;;;;5029551;28;20226;-65
2022/07/05 03:37:40;;;;;;;4.20;3.80;;;;;;;;;;5021294;28;20206;-65
2022/07/05 03:40:08;;;;;;;4.30;4.00;;;;;;;;;;5025803;28;20222;-66
2022/07/05 03:42:36;;;;;;;4.10;3.80;;;;;;;;;;5024466;28;20321;-65
2022/07/05 03:45:03;;;;;;;4.47;4.03;;;;;;;;;;5026057;28;20229;-65
2022/07/05 03:47:31;;;;;;;4.03;3.73;;;;;;;;;;5028147;28;20214;-65
2022/07/05 03:49:58;;;;;;;3.67;3.40;;;;;;;;;;5023292;28;20758;-66
2022/07/05 03:52:25;;;;;;;4.00;3.70;;;;;;;;;;5017958;28;20210;-65
2022/07/05 03:54:53;;;;;;;4.10;3.77;;;;;;;;;;5027656;28;20625;-65
2022/07/05 03:57:21;;;;;;;4.40;3.50;;;;;;;;;;5023683;28;20216;-66
2022/07/05 03:59:48;;;;;;;4.80;3.43;;;;;;;;;;5021050;28;20211;-66
2022/07/05 04:02:16;;;;;;;3.50;3.30;;;;;;;;;;5017149;28;20206;-66
2022/07/05 04:04:43;;;;;;;3.00;2.90;;;;;;;;;;5023455;28;20226;-66
2022/07/05 04:07:10;;;;;;;4.10;2.90;;;;;;;;;;5022211;28;20296;-66
2022/07/05 04:09:38;;;;;;;3.87;2.67;;;;;;;;;;5026938;28;20260;-66
2022/07/05 04:12:06;;;;;;;3.43;3.03;;;;;;;;;;5020197;28;20210;-66
2022/07/05 04:14:34;;;;;;;2.80;2.60;;;;;;;;;;5023450;28;20647;-65
2022/07/05 04:17:01;;;;;;;3.43;3.00;;;;;;;;;;5027724;28;20313;-65
2022/07/05 04:19:30;;;;;;;3.07;2.87;;;;;;;;;;5016205;28;20677;-67
2022/07/05 04:22:01;;;;;;;3.13;2.80;;;;;;;;;;5005568;28;20245;-66
2022/07/05 04:24:28;;;;;;;3.30;3.10;;;;;;;;;;5036454;28;20313;-66
2022/07/05 04:26:56;;;;;;;4.53;2.90;;;;;;;;;;5015119;28;20211;-66
2022/07/05 04:29:23;;;;;;;3.87;3.13;;;;;;;;;;5021731;28;20696;-65
2022/07/05 04:31:51;;;;;;;3.00;2.80;;;;;;;;;;5021546;28;20281;-65
2022/07/05 04:34:18;;;;;;;3.27;3.00;;;;;;;;;;5026723;28;20244;-66
2022/07/05 04:36:46;;;;;;;4.10;3.37;;;;;;;;;;5025950;28;20207;-64
2022/07/05 04:39:13;;;;;;;3.57;3.27;;;;;;;;;;5021199;28;20223;-64
2022/07/05 04:41:40;;;;;;;3.00;2.80;;;;;;;;;;5023214;28;20207;-65
2022/07/05 04:44:08;;;;;;;3.00;2.80;;;;;;;;;;5029463;28;20234;-66
2022/07/05 04:46:35;;;;;;;3.10;2.90;;;;;;;;;;5024906;28;20625;-65
2022/07/05 04:49:03;;;;;;;3.10;2.90;;;;;;;;;;5016253;28;20206;-66
2022/07/05 04:51:30;;;;;;;2.80;2.70;;;;;;;;;;5028012;28;20203;-65
2022/07/05 04:53:58;;;;;;;3.78;2.70;;;;;;;;;;5028758;28;20623;-65
2022/07/05 04:56:25;;;;;;;3.17;2.97;;;;;;;;;;5022864;28;20846;-65
2022/07/05 04:58:52;;;;;;;3.47;3.00;;;;;;;;;;5026896;28;20795;-65
2022/07/05 05:01:20;;;;;;;3.40;3.20;;;;;;;;;;5022012;28;20232;-65
2022/07/05 05:03:47;;;;;;;3.47;2.90;;;;;;;;;;5021463;28;20600;-66
2022/07/05 05:06:15;;;;;;;3.03;2.83;;;;;;;;;;5024926;28;20288;-65
2022/07/05 05:08:42;;;;;;;5.45;2.90;;;;;;;;;;5023434;28;20207;-65
2022/07/05 05:11:09;;;;;;;3.13;2.90;;;;;;;;;;5023477;28;20679;-65
2022/07/05 05:13:37;;;;;;;4.10;2.97;;;;;;;;;;5016356;28;20215;-65
2022/07/05 05:16:04;;;;;;;5.30;3.15;;;;;;;;;;5023085;28;20254;-65
2022/07/05 05:18:32;;;;;;;2.88;2.63;;;;;;;;;;5019066;28;20243;-66
2022/07/05 05:20:59;;;;;;;3.30;3.10;;;;;;;;;;5034217;28;20207;-66
2022/07/05 05:23:26;;;;;;;4.80;2.70;;;;;;;;;;5031111;28;20280;-66
2022/07/05 05:25:54;;;;;;;3.63;2.70;;;;;;;;;;5027646;28;20280;-66
2022/07/05 05:28:21;;;;;;;2.22;2.13;;;;;;;;;;5043313;28;20206;-66
2022/07/05 05:30:49;;;;;;;2.75;2.00;;;;;;;;;;5020759;28;20268;-66
2022/07/05 05:33:16;;;;;;;1.92;1.60;;;;;;;;;;5023526;28;20211;-65
2022/07/05 05:35:43;;;;;;;1.50;1.40;;;;;;;;;;5023503;28;20167;-65
2022/07/05 05:38:11;;;;;;;;;;;;;;;;;;5025667;28;20076;-65
2022/07/05 05:40:40;;;;;;;;;;;;;;;;;;5022191;28;19960;-66
2022/07/05 05:43:08;;;;;;;3.28;1.45;;;;;;;;;;5016881;28;20237;-66
2022/07/05 05:45:35;;;;;;;2.65;1.20;;;;;;;;;;5019682;28;20252;-65
2022/07/05 05:48:03;;;;;;;1.20;1.10;;;;;;;;;;5022012;28;20215;-66
2022/07/05 05:50:31;;;;;;;2.63;1.20;;;;;;;;;;5019718;28;20215;-66
2022/07/05 05:52:59;;;;;;;1.42;1.02;;;;;;;;;;5020752;28;20206;-66
2022/07/05 05:55:27;;;;;;;3.30;1.10;;;;;;;;;;5022519;28;20241;-65
2022/07/05 05:57:56;;;;;;;2.05;1.27;;;;;;;;;;5020931;28;20669;-66
2022/07/05 06:00:25;;;;;;;2.10;1.30;;;;;;;;;;5024521;28;20215;-66
2022/07/05 06:02:53;;;;;;;2.50;1.00;;;;;;;;;;5021079;28;20249;-66
2022/07/05 06:05:20;;;;;;;1.90;1.20;;;;;;;;;;5023250;28;20233;-66
2022/07/05 06:07:52;;;;;;;1.85;1.08;;;;;;;;;;5007673;28;20207;-65
2022/07/05 06:10:20;;;;;;;1.95;1.20;;;;;;;;;;5019755;28;20834;-66
2022/07/05 06:12:48;;;;;;;2.55;1.10;;;;;;;;;;5027093;28;20199;-65
2022/07/05 06:15:16;;;;;;;1.27;0.95;;;;;;;;;;5029012;28;20219;-65
2022/07/05 06:17:43;;;;;;;2.58;1.10;;;;;;;;;;5013824;28;20217;-65
2022/07/05 06:20:11;;;;;;;1.85;1.08;;;;;;;;;;5019540;28;20265;-65
2022/07/05 06:22:39;;;;;;;2.35;1.10;;;;;;;;;;5013049;28;20302;-67
2022/07/05 06:25:07;;;;;;;4.00;1.25;;;;;;;;;;5024932;28;20292;-66
2022/07/05 06:27:59;;;;;;;2.35;1.15;;;;;;;;;;5024960;28;20612;-66
2022/07/05 06:30:29;;;;;;;3.33;1.30;;;;;;;;;;5026224;28;20206;-66
2022/07/05 06:32:57;;;;;;;2.83;1.40;;;;;;;;;;5023991;28;20207;-66
2022/07/05 06:35:25;;;;;;;2.17;1.45;;;;;;;;;;5024420;28;20724;-65
2022/07/05 06:37:53;;;;;;;2.00;1.48;;;;;;;;;;5019838;28;20559;-66
2022/07/05 06:40:22;;;;;;;2.72;1.45;;;;;;;;;;5013923;28;20207;-65
2022/07/05 06:42:51;;;;;;;1.65;1.27;;;;;;;;;;5007097;28;20643;-65
2022/07/05 06:45:18;;;;;;;1.63;1.52;;;;;;;;;;5010154;28;20235;-68
2022/07/05 06:47:46;;;;;;;1.38;1.30;;;;;;;;;;5016123;28;20390;-65
2022/07/05 06:50:13;;;;;;;3.08;1.52;;;;;;;;;;5014970;28;20238;-66
2022/07/05 06:52:40;;;;;;;2.63;1.40;;;;;;;;;;5013272;28;20200;-66
2022/07/05 06:55:08;;;;;;;1.77;1.20;;;;;;;;;;5012840;28;20236;-64
2022/07/05 06:57:35;;;;;;;4.22;1.77;;;;;;;;;;5017260;28;20210;-66
2022/07/05 07:00:04;;;;;;;1.40;1.30;;;;;;;;;;5020509;28;20203;-65
2022/07/05 07:02:51;;;;;;;1.50;1.40;;;;;;;;;;5013949;28;20798;-66
2022/07/05 07:05:19;;;;;;;2.90;1.40;;;;;;;;;;5006449;28;20231;-66
2022/07/05 07:10:41;;;;;;;1.95;1.60;;;;;;;;;;5016685;28;20211;-64
2022/07/05 07:13:13;;;;;;;1.70;1.50;;;;;;;;;;5005977;28;20913;-64
2022/07/05 07:15:41;;;;;;;1.77;1.55;;;;;;;;;;5010104;28;20241;-65
2022/07/05 07:18:12;;;;;;;1.60;1.50;;;;;;;;;;5017380;28;20268;-65
2022/07/05 07:20:39;;;;;;;1.85;1.52;;;;;;;;;;5026055;28;20237;-64
2022/07/05 07:23:06;;;;;;;1.70;1.60;;;;;;;;;;5013986;28;20215;-65
2022/07/05 07:25:34;;;;;;;1.60;1.52;;;;;;;;;;5013619;28;20218;-64
2022/07/05 07:28:03;;;;;;;4.70;1.17;;;;;;;;;;5021400;28;20661;-63
2022/07/05 07:30:30;;;;;;;1.63;1.35;;;;;;;;;;5020316;28;20238;-64
2022/07/05 07:32:58;;;;;;;4.75;1.38;;;;;;;;;;5017755;28;20205;-64
2022/07/05 07:35:25;;;;;;;2.65;1.35;;;;;;;;;;5017751;28;22834;-64
2022/07/05 07:37:52;;;;;;;2.47;1.20;;;;;;;;;;5023310;28;20684;-65
2022/07/05 07:40:20;;;;;;;2.85;2.10;;;;;;;;;;5014173;28;20231;-64
2022/07/05 07:42:47;;;;;;;1.48;1.33;;;;;;;;;;5020830;28;20672;-64
2022/07/05 07:45:14;;;;;;;2.33;1.27;;;;;;;;;;5012215;28;20226;-64
2022/07/05 07:47:42;;;;;;;1.65;1.15;;;;;;;;;;5019781;28;20218;-65
2022/07/05 07:50:11;;;;;;;5.93;1.63;;;;;;;;;;5024636;28;20199;-64
2022/07/05 07:52:38;;;;;;;2.22;1.50;;;;;;;;;;5022088;28;20703;-65
2022/07/05 07:55:06;;;;;;;3.97;1.95;;;;;;;;;;5020031;28;20288;-63
2022/07/05 07:57:33;;;;;;;3.50;1.95;;;;;;;;;;5020604;28;20432;-63
2022/07/05 08:00:01;;;;;;;2.95;1.90;;;;;;;;;;5021317;28;20290;-63
2022/07/05 08:02:28;;;;;;;2.75;1.40;;;;;;;;;;5017942;28;20210;-64
2022/07/05 08:04:57;;;;;;;1.40;1.25;;;;;;;;;;5018123;28;20241;-64
2022/07/05 08:07:25;;;;;;;2.60;1.35;;;;;;;;;;5020255;28;20198;-66
2022/07/05 08:09:52;;;;;;;1.70;1.20;;;;;;;;;;5020409;28;20211;-65
2022/07/05 08:12:20;;;;;;;3.70;1.40;;;;;;;;;;5019986;28;20302;-64
2022/07/05 08:14:47;;;;;;;1.88;1.35;;;;;;;;;;5017186;28;20233;-65
2022/07/05 08:17:16;;;;;;;1.30;1.20;;;;;;;;;;5017018;28;20203;-65
2022/07/05 08:22:29;;;;;;;1.10;1.00;;;;;;;;;;5016014;28;20711;-65
2022/07/05 08:24:57;;;;;;;3.45;1.13;;;;;;;;;;5018052;28;20249;-65
2022/07/05 08:27:25;;;;;;;2.45;1.00;;;;;;;;;;5021213;28;20207;-63
2022/07/05 08:29:53;;;;;;;2.88;1.20;;;;;;;;;;5010431;28;20215;-65
2022/07/05 08:32:20;;;;;;;1.85;1.17;;;;;;;;;;5009093;28;20214;-63
2022/07/05 08:34:47;;;;;;;1.55;1.20;;;;;;;;;;5020889;28;20231;-64
2022/07/05 08:37:15;;;;;;;1.40;1.20;;;;;;;;;;5016916;28;20207;-63
2022/07/05 08:39:44;;;;;;;1.90;1.30;;;;;;;;;;5019439;28;20574;-64
2022/07/05 08:42:12;;;;;;;1.55;1.10;;;;;;;;;;5024816;28;20217;-65
2022/07/05 08:44:40;;;;;;;0.90;0.90;;;;;;;;;;5023726;28;20258;-64
2022/07/05 08:47:10;;;;;;;1.55;1.00;;;;;;;;;;5021273;28;20211;-65
2022/07/05 08:49:38;;;;;;;2.20;1.40;;;;;;;;;;5012402;28;20809;-65
2022/07/05 08:52:07;;;;;;;2.25;1.30;;;;;;;;;;5019071;28;20301;-65
2022/07/05 08:54:37;;;;;;;1.17;1.08;;;;;;;;;;5015676;28;20246;-65
2022/07/05 08:57:05;;;;;;;1.67;1.20;;;;;;;;;;5013957;28;20668;-65
2022/07/05 08:59:38;;;;;;;1.65;1.30;;;;;;;;;;5026287;28;20213;-65
2022/07/05 09:02:08;;;;;;;1.10;1.00;;;;;;;;;;5017714;28;20672;-65
2022/07/05 09:04:37;;;;;;;3.58;1.95;;;;;;;;;;5020343;28;20598;-63
2022/07/05 09:07:07;;;;;;;4.75;1.80;;;;;;;;;;5023502;28;20277;-65
2022/07/05 09:09:42;;;;;;;3.30;2.00;;;;;;;;;;5017218;28;20213;-64
2022/07/05 09:12:12;;;;;;;10.60;6.10;;;;;;;;;;5013478;28;20220;-64
2022/07/05 09:14:50;;;;;;;1.70;1.10;;;;;;;;;;5009465;28;20370;-62
2022/07/05 09:17:17;;;;;;;4.68;1.20;;;;;;;;;;5017358;28;20265;-65
2022/07/05 09:19:51;;;;;;;5.43;3.22;;;;;;;;;;5015704;28;20230;-65
2022/07/05 09:22:18;;;;;;;0.93;0.93;;;;;;;;;;5017614;28;20230;-65
2022/07/05 09:24:46;;;;;;;2.58;1.00;;;;;;;;;;5016489;28;20919;-64
2022/07/05 09:27:16;;;;;;;2.30;1.10;;;;;;;;;;5017580;28;20250;-63
2022/07/05 09:29:55;;;;;;;1.40;1.23;;;;;;;;;;5010960;28;20286;-63
2022/07/05 09:32:32;;;;;;;1.20;1.10;;;;;;;;;;5020766;28;20624;-64
2022/07/05 09:35:18;;;;;;;1.85;1.17;;;;;;;;;;5009644;28;20232;-65
2022/07/05 09:37:45;;;;;;;1.58;1.05;;;;;;;;;;5016630;28;20715;-64
2022/07/05 09:40:13;;;;;;;2.88;1.17;;;;;;;;;;5022648;28;20206;-63
2022/07/05 09:42:47;;;;;;;1.73;1.20;;;;;;;;;;5016442;28;20230;-63
2022/07/05 09:45:25;;;;;;;1.88;0.95;;;;;;;;;;5015252;28;20238;-64
2022/07/05 09:47:55;;;;;;;1.40;1.30;;;;;;;;;;5013997;28;20217;-64
2022/07/05 09:50:46;;;;;;;1.20;1.10;;;;;;;;;;5016407;28;20211;-66
2022/07/05 09:53:44;;;;;;;2.78;1.30;;;;;;;;;;5016264;28;20302;-65
2022/07/05 09:56:12;;;;;;;3.67;1.20;;;;;;;;;;5015943;28;20685;-64
2022/07/05 09:58:39;;;;;;;1.45;1.10;;;;;;;;;;5015724;28;20661;-65
2022/07/05 10:01:27;;;;;;;1.20;1.10;;;;;;;;;;5021272;28;20222;-65
2022/07/05 10:03:55;;;;;;;1.88;1.15;;;;;;;;;;5018564;28;20318;-66
2022/07/05 10:06:23;;;;;;;3.20;1.30;;;;;;;;;;5013783;28;20246;-65
2022/07/05 10:08:51;;;;;;;2.25;1.20;;;;;;;;;;5010326;28;20238;-65
2022/07/05 10:11:19;;;;;;;1.40;1.30;;;;;;;;;;5017091;28;20207;-64
2022/07/05 10:13:52;;;;;;;1.52;1.30;;;;;;;;;;5015426;28;20238;-64
2022/07/05 10:16:21;;;;;;;2.45;1.30;;;;;;;;;;5013414;28;20219;-64
2022/07/05 10:18:52;;;;;;;3.17;2.08;;;;;;;;;;5022551;28;20206;-65
2022/07/05 10:21:20;;;;;;;1.10;1.10;;;;;;;;;;5006277;28;20211;-64
2022/07/05 10:23:53;;;;;;;2.25;1.00;;;;;;;;;;5015748;28;20207;-64
2022/07/05 10:26:22;;;;;;;1.23;1.10;;;;;;;;;;5016256;28;20238;-64
2022/07/05 10:28:53;;;;;;;1.35;1.10;;;;;;;;;;5003725;28;20867;-64
2022/07/05 10:31:28;;;;;;;1.20;1.08;;;;;;;;;;5013071;28;20202;-64
2022/07/05 10:33:57;;;;;;;1.23;1.10;;;;;;;;;;5009372;28;20211;-68
2022/07/05 10:36:25;;;;;;;1.75;1.00;;;;;;;;;;5008195;28;20223;-65
2022/07/05 10:38:53;;;;;;;1.17;1.00;;;;;;;;;;5016707;28;20675;-64
2022/07/05 10:41:26;;;;;;;1.00;1.00;;;;;;;;;;5016630;28;20202;-64
2022/07/05 10:43:55;;;;;;;1.23;1.10;;;;;;;;;;5010614;28;20206;-64
2022/07/05 10:46:42;;;;;;;2.45;1.23;;;;;;;;;;5013353;28;20699;-66
2022/07/05 10:49:10;;;;;;;3.75;1.05;;;;;;;;;;5005615;28;20207;-64
2022/07/05 10:51:38;;;;;;;1.85;1.10;;;;;;;;;;5013413;28;20209;-64
2022/07/05 10:54:06;;;;;;;2.33;1.20;;;;;;;;;;5005219;28;20792;-65
2022/07/05 10:56:33;;;;;;;1.70;0.90;;;;;;;;;;5013909;28;20311;-64
2022/07/05 10:59:06;;;;;;;2.25;1.00;;;;;;;;;;5017104;28;20203;-64
2022/07/05 11:01:34;;;;;;;1.13;1.00;;;;;;;;;;5012281;28;20210;-65
2022/07/05 11:04:01;;;;;;;1.00;0.90;;;;;;;;;;5014895;28;20217;-65
2022/07/05 11:06:31;;;;;;;2.75;1.20;;;;;;;;;;5022191;28;20222;-66
2022/07/05 11:09:04;;;;;;;0.82;0.80;;;;;;;;;;5018467;28;20215;-64
2022/07/05 11:11:41;;;;;;;2.72;1.08;;;;;;;;;;5018307;28;20550;-66
2022/07/05 11:14:29;;;;;;;1.90;0.90;;;;;;;;;;5022448;28;20301;-64
2022/07/05 11:17:11;;;;;;;1.00;1.00;;;;;;;;;;5023724;28;20289;-65
2022/07/05 11:19:58;;;;;;;1.35;1.00;;;;;;;;;;5010450;28;20214;-65
2022/07/05 11:22:26;;;;;;;1.05;0.93;;;;;;;;;;5022104;28;20214;-66
2022/07/05 11:24:54;;;;;;;2.17;0.90;;;;;;;;;;5019300;28;20321;-66
2022/07/05 11:27:21;;;;;;;1.80;0.90;;;;;;;;;;5024821;28;20216;-65
2022/07/05 11:29:55;;;;;;;1.23;1.13;;;;;;;;;;5019689;28;20245;-67
2022/07/05 11:32:23;;;;;;;1.83;1.00;;;;;;;;;;5009537;28;20206;-67
2022/07/05 11:34:52;;;;;;;1.75;1.10;;;;;;;;;;5018137;28;20807;-66
2022/07/05 11:37:24;;;;;;;1.45;0.90;;;;;;;;;;5020396;28;20222;-66
2022/07/05 11:40:01;;;;;;;2.15;0.98;;;;;;;;;;5015001;28;20206;-65
2022/07/05 11:42:28;;;;;;;1.95;1.00;;;;;;;;;;5021083;28;20207;-66
2022/07/05 11:44:57;;;;;;;0.88;0.88;;;;;;;;;;5024291;28;20238;-65
2022/07/05 11:47:34;;;;;;;1.45;1.00;;;;;;;;;;5023284;28;20699;-68
2022/07/05 11:50:10;;;;;;;1.20;1.10;;;;;;;;;;5023648;28;20211;-66
2022/07/05 11:52:38;;;;;;;3.08;1.65;;;;;;;;;;5019361;28;20241;-65
2022/07/05 11:55:09;;;;;;;3.20;1.35;;;;;;;;;;5024085;28;20231;-66
2022/07/05 11:57:38;;;;;;;0.73;0.73;;;;;;;;;;5015525;28;20214;-66
2022/07/05 12:00:05;;;;;;;0.90;0.90;;;;;;;;;;5018384;28;20223;-65
2022/07/05 12:02:43;;;;;;;4.22;1.20;;;;;;;;;;5019582;28;20268;-64
2022/07/05 12:05:11;;;;;;;3.92;1.02;;;;;;;;;;5030242;28;20282;-66
2022/07/05 12:07:40;;;;;;;2.80;1.10;;;;;;;;;;5025507;28;20290;-64
2022/07/05 12:13:14;;;;;;;3.22;2.97;;;;;;;;;;5020742;28;20265;-66
2022/07/05 12:15:41;;;;;;;1.15;1.10;;;;;;;;;;5016472;28;20231;-66
2022/07/05 12:18:11;;;;;;;2.00;1.20;;;;;;;;;;5020373;28;20329;-65
2022/07/05 12:20:39;;;;;;;1.60;1.00;;;;;;;;;;5020635;28;20206;-66
2022/07/05 12:23:08;;;;;;;0.90;0.90;;;;;;;;;;5019080;28;20207;-66
2022/07/05 12:25:36;;;;;;;1.48;0.90;;;;;;;;;;5022528;28;20699;-64
2022/07/05 12:28:06;;;;;;;1.40;1.10;;;;;;;;;;5014699;28;20212;-64
2022/07/05 12:30:34;;;;;;;1.50;1.00;;;;;;;;;;5022070;28;20252;-65
2022/07/05 12:33:12;;;;;;;2.40;0.88;;;;;;;;;;5020633;28;20203;-63
2022/07/05 12:35:40;;;;;;;1.38;0.98;;;;;;;;;;5019546;28;20223;-64
2022/07/05 12:38:08;;;;;;;1.25;1.00;;;;;;;;;;5017552;28;20214;-64
2022/07/05 12:40:36;;;;;;;3.08;1.00;;;;;;;;;;5018748;28;21216;-64
2022/07/05 12:43:06;;;;;;;3.95;1.50;;;;;;;;;;5023363;28;20249;-64
2022/07/05 12:45:33;;;;;;;0.90;0.90;;;;;;;;;;5016678;28;20234;-66
2022/07/05 12:48:03;;;;;;;1.50;0.85;;;;;;;;;;5025083;28;20241;-65
2022/07/05 12:50:31;;;;;;;4.63;1.20;;;;;;;;;;5019621;28;20199;-66
2022/07/05 12:58:53;;;;;;;1.70;1.00;;;;;;;;;;5027248;28;20208;-66
2022/07/05 13:01:24;;;;;;;1.83;0.90;;;;;;;;;;5017334;28;21048;-65
2022/07/05 13:03:58;;;;;;;1.10;1.00;;;;;;;;;;5017825;28;20275;-66
2022/07/05 13:06:44;;;;;;;2.75;2.30;;;;;;;;;;5016399;28;20226;-65
2022/07/05 13:09:13;;;;;;;1.35;1.00;;;;;;;;;;5020199;28;20202;-65
2022/07/05 13:11:40;;;;;;;1.33;0.90;;;;;;;;;;5019757;28;20257;-65
2022/07/05 13:14:08;;;;;;;1.83;1.25;;;;;;;;;;5018380;28;20207;-64
2022/07/05 13:16:35;;;;;;;2.42;1.10;;;;;;;;;;5016885;28;20268;-64
2022/07/05 13:19:07;;;;;;;1.48;1.08;;;;;;;;;;5006175;28;20334;-65
2022/07/05 13:21:35;;;;;;;0.90;0.90;;;;;;;;;;5015087;28;20566;-65
2022/07/05 13:24:03;;;;;;;0.85;0.80;;;;;;;;;;5023009;28;20241;-63
2022/07/05 13:26:30;;;;;;;1.20;1.10;;;;;;;;;;5019903;28;20239;-65
2022/07/05 13:28:57;;;;;;;1.17;0.80;;;;;;;;;;5018190;28;20305;-66
2022/07/05 13:31:25;;;;;;;0.88;0.88;;;;;;;;;;5022732;28;20195;-65
2022/07/05 13:33:53;;;;;;;1.15;0.90;;;;;;;;;;5019343;28;20286;-65
2022/07/05 13:36:21;;;;;;;1.40;1.10;;;;;;;;;;5018399;28;20804;-65
2022/07/05 13:38:48;;;;;;;2.70;1.13;;;;;;;;;;5027681;28;20237;-64
2022/07/05 13:41:17;;;;;;;1.30;0.90;;;;;;;;;;5025777;28;20290;-65
2022/07/05 13:43:44;;;;;;;1.38;0.90;;;;;;;;;;5029488;28;20273;-65
2022/07/05 13:46:12;;;;;;;2.53;0.90;;;;;;;;;;5024529;28;20230;-65
2022/07/05 13:48:40;;;;;;;1.50;0.85;;;;;;;;;;5026056;28;20210;-64
2022/07/05 13:51:08;;;;;;;1.80;1.00;;;;;;;;;;5021238;28;20219;-65
2022/07/05 13:53:36;;;;;;;2.17;0.90;;;;;;;;;;5026059;28;20207;-64
2022/07/05 13:56:04;;;;;;;2.00;1.10;;;;;;;;;;5023366;28;22114;-64
2022/07/05 13:58:35;;;;;;;4.05;2.33;;;;;;;;;;5018747;28;20256;-63
2022/07/05 14:01:03;;;;;;;1.52;1.08;;;;;;;;;;5010028;28;20600;-64
2022/07/05 14:03:30;;;;;;;1.70;0.90;;;;;;;;;;5026413;28;20207;-65
2022/07/05 14:05:58;;;;;;;2.88;0.95;;;;;;;;;;5018885;28;20234;-65
2022/07/05 14:08:26;;;;;;;0.93;0.80;;;;;;;;;;5026864;28;20249;-66
2022/07/05 14:10:57;;;;;;;3.45;0.90;;;;;;;;;;5019514;28;20199;-66
2022/07/05 14:13:28;;;;;;;1.85;1.00;;;;;;;;;;5025908;28;20203;-65
2022/07/05 14:15:56;;;;;;;0.90;0.90;;;;;;;;;;5026187;28;20233;-68
2022/07/05 14:18:24;;;;;;;2.55;1.00;;;;;;;;;;5030095;28;20738;-66
2022/07/05 14:20:52;;;;;;;1.90;1.08;;;;;;;;;;5024565;28;20330;-64
2022/07/05 14:23:20;;;;;;;4.10;2.80;;;;;;;;;;5024926;28;20621;-65
2022/07/05 14:25:47;;;;;;;2.30;1.20;;;;;;;;;;5015412;28;20279;-64
2022/07/05 14:28:15;;;;;;;1.63;1.15;;;;;;;;;;5018780;28;20570;-65
2022/07/05 14:30:44;;;;;;;2.15;0.80;;;;;;;;;;5026948;28;20211;-65
2022/07/05 14:33:12;;;;;;;2.35;0.90;;;;;;;;;;5024944;28;20206;-66
2022/07/05 14:35:40;;;;;;;1.10;0.90;;;;;;;;;;5023429;28;20712;-65
2022/07/05 14:38:09;;;;;;;1.60;0.80;;;;;;;;;;5024835;28;20229;-65
2022/07/05 14:40:36;;;;;;;2.60;1.00;;;;;;;;;;5015499;28;20208;-67
2022/07/05 14:43:04;;;;;;;1.15;1.15;;;;;;;;;;5021019;28;20658;-66
2022/07/05 14:45:31;;;;;;;1.98;0.95;;;;;;;;;;5028968;28;20231;-65
2022/07/05 14:47:58;;;;;;;2.50;1.25;;;;;;;;;;5032522;28;20219;-66
2022/07/05 14:50:26;;;;;;;1.75;1.27;;;;;;;;;;5025426;28;20206;-67
2022/07/05 14:52:53;;;;;;;1.02;0.85;;;;;;;;;;5020598;28;20650;-64
2022/07/05 14:55:20;;;;;;;1.25;1.00;;;;;;;;;;5011966;28;20234;-65
2022/07/05 14:57:48;;;;;;;2.00;0.93;;;;;;;;;;5018674;28;20215;-64
2022/07/05 15:00:16;;;;;;;1.13;1.05;;;;;;;;;;5015835;28;21127;-66
2022/07/05 15:02:43;;;;;;;1.85;1.00;;;;;;;;;;5014428;28;20215;-63
2022/07/05 15:05:11;;;;;;;2.15;0.98;;;;;;;;;;5011338;28;20270;-65
2022/07/05 15:07:40;;;;;;;2.33;1.10;;;;;;;;;;5019803;28;20784;-65